Weather History for Emporia, VA

Change the Weather History Date:

Friday, November 16, 2012

  Actual Average Record
Temperature  
Mean Temperature 42 °F -  
Max Temperature 51 °F 63 °F 83 °F (1993)
Min Temperature 32 °F 37 °F 24 °F (2014)
Degree Days  
Heating Degree Days 24    
Moisture  
Dew Point 36 °F    
Average Humidity 82    
Maximum Humidity 100    
Minimum Humidity 50    
Precipitation  
Precipitation 0.00 in - - ()
Sea Level Pressure  
Sea Level Pressure 30.33 in    
Wind  
Wind Speed 4 mph (NNW)    
Max Wind Speed 12 mph    
Max Gust Speed 16 mph    
Visibility 10 miles    
Events Rain    
Averages and records for this station are not official NWS values.
T = Trace of Precipitation, MM = Missing Value Source: NWS Daily Summary

Daily Weather History Graph

Daily Weather History Graph

Search for Another Location

Airport:

Trip Planner

Search our weather history database for the weather conditions in past years. The results will help you decide how hot, cold, wet, or windy it might be!

Date:

Astronomy

Nov. 16, 2012 Rise Set
Actual Time 6:49 AM EST 4:59 PM EST
Civil Twilight 6:21 AM EST 5:27 PM EST
Nautical Twilight 5:50 AM EST 5:58 PM EST
Astronomical Twilight 5:19 AM EST 6:29 PM EST
Moon 9:40 AM EST (11/16) 7:58 PM EST (11/16)
Length of Visible Light 11h 05m
Length of Day
10h 10m
Waxing Crescent, 11% of the Moon is Illuminated
Nov 16
Waxing Crescent
Nov 20
First Quarter
Nov 28
Full
Dec 6
Last Quarter
Dec 13
New

Hourly Weather History & Observations

Time (EST) Temp. Windchill Dew Point Humidity Pressure Visibility Wind Dir Wind Speed Gust Speed Precip Events Conditions
12:15 AM 42.8 °F 40.1 °F 42.8 °F 100% 30.30 in 10.0 mi NW 4.6 mph - N/A   Overcast
12:35 AM 42.8 °F 40.1 °F 41.0 °F 93% 30.29 in 10.0 mi NNW 4.6 mph - N/A   Overcast
12:55 AM 42.8 °F 41.1 °F 41.0 °F 93% 30.29 in 10.0 mi NW 3.5 mph - N/A   Overcast
1:15 AM 42.8 °F 40.1 °F 41.0 °F 93% 30.29 in 10.0 mi NNW 4.6 mph - N/A   Overcast
1:35 AM 42.8 °F 39.3 °F 41.0 °F 93% 30.28 in 10.0 mi North 5.8 mph - N/A   Light Drizzle
1:55 AM 42.8 °F 40.1 °F 41.0 °F 93% 30.28 in - North 4.6 mph - N/A   Unknown
2:15 AM 42.8 °F 41.1 °F 41.0 °F 93% 30.28 in 10.0 mi North 3.5 mph - N/A Rain Light Rain
2:35 AM 42.8 °F 41.1 °F 41.0 °F 93% 30.29 in 10.0 mi NNW 3.5 mph - N/A   Overcast
2:55 AM 42.8 °F 40.1 °F 41.0 °F 93% 30.30 in 10.0 mi NW 4.6 mph - N/A   Overcast
3:15 AM 42.8 °F 40.1 °F 41.0 °F 93% 30.29 in 10.0 mi NNW 4.6 mph - N/A   Overcast
3:35 AM 42.8 °F 41.1 °F 41.0 °F 93% 30.30 in 10.0 mi WNW 3.5 mph - N/A   Overcast
3:55 AM 42.8 °F 40.1 °F 41.0 °F 93% 30.29 in 10.0 mi NNW 4.6 mph - N/A   Overcast
4:15 AM 42.8 °F 41.1 °F 41.0 °F 93% 30.30 in 10.0 mi NNW 3.5 mph - N/A   Overcast
4:35 AM 41.0 °F 38.0 °F 39.2 °F 93% 30.29 in 10.0 mi NW 4.6 mph - N/A   Mostly Cloudy
4:55 AM 39.2 °F 37.0 °F 39.2 °F 100% 30.29 in 7.0 mi NW 3.5 mph - N/A   Clear
5:15 AM 37.4 °F - 37.4 °F 100% 30.30 in 7.0 mi Calm Calm - N/A   Clear
5:35 AM 37.4 °F 34.9 °F 37.4 °F 100% 30.31 in 7.0 mi West 3.5 mph - N/A   Clear
5:55 AM 37.4 °F - 37.4 °F 100% 30.31 in 5.0 mi Calm Calm - N/A   Scattered Clouds
6:15 AM 35.6 °F 32.8 °F 35.6 °F 100% 30.30 in 3.0 mi NW 3.5 mph - N/A   Scattered Clouds
6:35 AM 37.4 °F 33.8 °F 37.4 °F 100% 30.30 in 7.0 mi NW 4.6 mph - N/A   Clear
6:55 AM 35.6 °F 31.7 °F 35.6 °F 100% 30.31 in 7.0 mi WNW 4.6 mph - N/A   Clear
7:15 AM 37.4 °F 34.9 °F 37.4 °F 100% 30.32 in 10.0 mi West 3.5 mph - N/A   Clear
7:35 AM 37.4 °F 34.9 °F 37.4 °F 100% 30.33 in 10.0 mi WNW 3.5 mph - N/A   Clear
7:55 AM 39.2 °F 35.0 °F 37.4 °F 93% 30.32 in 10.0 mi NW 5.8 mph - N/A   Clear
8:15 AM 41.0 °F 38.0 °F 39.2 °F 93% 30.33 in 10.0 mi NW 4.6 mph - N/A   Clear
8:35 AM 41.0 °F 37.1 °F 37.4 °F 87% 30.33 in 10.0 mi NNW 5.8 mph - N/A   Clear
8:55 AM 42.8 °F 38.6 °F 37.4 °F 81% 30.34 in 10.0 mi NNW 6.9 mph - N/A   Clear
9:15 AM 44.6 °F 40.7 °F 37.4 °F 76% 30.35 in 10.0 mi NNW 6.9 mph - N/A   Clear
9:35 AM 44.6 °F 40.7 °F 37.4 °F 76% 30.35 in 10.0 mi North 6.9 mph - N/A   Clear
9:55 AM 44.6 °F 39.7 °F 37.4 °F 76% 30.35 in 10.0 mi NNW 9.2 mph - N/A   Clear
10:35 AM 46.4 °F 41.1 °F 35.6 °F 66% 30.34 in 10.0 mi North 11.5 mph 16.1 mph N/A   Clear
10:55 AM 48.2 °F - 37.4 °F 66% 30.34 in 10.0 mi NNW 11.5 mph - N/A   Clear
11:15 AM 48.2 °F - 37.4 °F 66% 30.33 in 10.0 mi NNW 10.4 mph - N/A   Clear
11:35 AM 48.2 °F - 35.6 °F 62% 30.33 in 10.0 mi NW 9.2 mph - N/A   Scattered Clouds
11:55 AM 50.0 °F - 35.6 °F 58% 30.32 in 10.0 mi NNW 8.1 mph - N/A   Scattered Clouds
12:15 PM 50.0 °F - 35.6 °F 58% 30.32 in - NNW 8.1 mph - N/A   Scattered Clouds
12:35 PM 50.0 °F - 35.6 °F 58% 30.32 in 10.0 mi NNW 10.4 mph - N/A   Clear
12:55 PM 51.8 °F - 35.6 °F 54% 30.32 in 10.0 mi NW 5.8 mph - N/A   Clear
1:15 PM 51.8 °F - 35.6 °F 54% 30.31 in 10.0 mi NNW 6.9 mph - N/A   Clear
1:35 PM 51.8 °F - 33.8 °F 50% 30.31 in 10.0 mi North 9.2 mph - N/A   Clear
1:55 PM 51.8 °F - 35.6 °F 54% 30.31 in - NNW 3.5 mph - N/A   Clear
2:15 PM 51.8 °F - 35.6 °F 54% 30.31 in 10.0 mi North 5.8 mph 16.1 mph N/A   Clear
2:35 PM 51.8 °F - 35.6 °F 54% 30.31 in 10.0 mi North 8.1 mph - N/A   Clear
2:55 PM 51.8 °F - 35.6 °F 54% 30.31 in 10.0 mi NNW 6.9 mph - N/A   Clear
3:15 PM 51.8 °F - 33.8 °F 50% 30.31 in 10.0 mi North 5.8 mph - N/A   Clear
3:35 PM 51.8 °F - 33.8 °F 50% 30.32 in - NNE 5.8 mph - N/A   Clear
3:55 PM 51.8 °F - 33.8 °F 50% 30.32 in 10.0 mi North 5.8 mph - N/A   Clear
4:15 PM 50.0 °F - 33.8 °F 54% 30.33 in 10.0 mi North 4.6 mph - N/A   Clear
4:35 PM 50.0 °F - 33.8 °F 54% 30.33 in 10.0 mi NNE 3.5 mph - N/A   Clear
4:55 PM 46.4 °F - 35.6 °F 66% 30.33 in 10.0 mi Calm Calm - N/A   Clear
5:15 PM 42.8 °F - 37.4 °F 81% 30.34 in 10.0 mi Calm Calm - N/A   Clear
5:35 PM 41.0 °F - 37.4 °F 87% 30.34 in 10.0 mi Calm Calm - N/A   Clear
5:55 PM 41.0 °F - 37.4 °F 87% 30.35 in 10.0 mi Calm Calm - N/A   Clear
6:15 PM 37.4 °F 34.9 °F 35.6 °F 93% 30.36 in 10.0 mi NNW 3.5 mph - N/A   Clear
6:35 PM 37.4 °F 34.9 °F 35.6 °F 93% 30.36 in 10.0 mi NNW 3.5 mph - N/A   Clear
6:55 PM 41.0 °F - 33.8 °F 76% 30.37 in 10.0 mi Calm Calm - N/A   Clear
7:15 PM 41.0 °F 38.0 °F 33.8 °F 76% 30.37 in 10.0 mi NNW 4.6 mph - N/A   Clear
7:35 PM 39.2 °F - 33.8 °F 81% 30.38 in 10.0 mi Calm Calm - N/A   Clear
7:55 PM 35.6 °F - 32.0 °F 87% 30.38 in 10.0 mi Calm Calm - N/A   Clear
8:15 PM 35.6 °F - 33.8 °F 93% 30.39 in 10.0 mi Calm Calm - N/A   Clear
8:55 PM 35.6 °F - 33.8 °F 93% 30.40 in 10.0 mi Calm Calm - N/A   Clear
9:15 PM 33.8 °F - 32.0 °F 93% 30.41 in 10.0 mi Calm Calm - N/A   Clear
9:35 PM 33.8 °F - 33.8 °F 100% 30.41 in 10.0 mi Calm Calm - N/A   Clear
9:55 PM 33.8 °F - 32.0 °F 93% 30.41 in 10.0 mi Calm Calm - N/A   Clear
10:15 PM 33.8 °F 30.8 °F 32.0 °F 93% 30.41 in 10.0 mi NW 3.5 mph - N/A   Clear
10:35 PM 33.8 °F - 32.0 °F 93% 30.42 in - Calm Calm - N/A   Unknown
10:55 PM 32.0 °F - 32.0 °F 100% 30.42 in 10.0 mi Calm Calm - N/A   Clear
11:15 PM 32.0 °F - 32.0 °F 100% 30.42 in 10.0 mi Calm Calm - N/A   Clear
11:35 PM 32.0 °F 28.7 °F 32.0 °F 100% 30.42 in 10.0 mi NW 3.5 mph - N/A   Clear
11:55 PM 32.0 °F 27.5 °F 32.0 °F 100% 30.42 in 10.0 mi NW 4.6 mph - N/A   Clear